Terminal Aerodrome Forecast
Issued by NWS

Home | Current Version | Previous Version | Text Only | Print | Product List | Glossary On
Versions: 1 2 3 4 5 6 7 8 9 10 11 12 13 14 15 16 17 18 19 20 21 22 23 24 25 26 27 28 29 30 31 32
000
FTUS45 KBOU 291722
TAFBJC
TAF
KBJC 291722Z 2918/3018 02006KT P6SM SCT080 SCT120
     FM292100 06007KT P6SM VCTS SCT080CB BKN120
     FM300100 14007KT P6SM SCT080 SCT150
     FM300400 30006KT P6SM FEW150 SCT220=

USA.gov is the U.S. government's official web portal to all federal, state and local government web resources and services.